Terminal Aerodrome Forecast
Issued by NWS

Home | Current Version | Previous Version | Text Only | Print | Product List | Glossary On
Versions: 1 2 3 4 5 6 7 8 9 10 11 12 13 14 15 16 17 18 19 20 21
521
FTAK31 PAJN 260540
TAFAYA
TAF
PAYA 260540Z 2606/2706 26004KT P6SM FEW050
     FM260800 00000KT P6SM BKN050
     FM261200 00000KT P6SM VCFG FEW015 BKN080
     FM261800 27005KT P6SM SCT090
     FM270200 VRB03KT P6SM BKN080
      AMD LTD TO CLD VIS AND WIND 2606/2609=

USA.gov is the U.S. government's official web portal to all federal, state and local government web resources and services.